sensor_id;sensor_type;location;lat;lon;timestamp;pressure;altitude;pressure_sealevel;temperature;humidity
29467;BME280;60968;37.490;-122.288;2022-07-06T00:00:55;98664.13;;;20.57;65.24
29467;BME280;60968;37.490;-122.288;2022-07-06T00:03:56;98653.34;;;20.60;65.89
29467;BME280;60968;37.490;-122.288;2022-07-06T00:06:57;98643.75;;;20.59;65.70
29467;BME280;60968;37.490;-122.288;2022-07-06T00:09:58;98646.25;;;20.46;65.92
29467;BME280;60968;37.490;-122.288;2022-07-06T00:12:59;98641.06;;;20.45;65.95
29467;BME280;60968;37.490;-122.288;2022-07-06T00:15:59;98631.78;;;20.23;66.91
29467;BME280;60968;37.490;-122.288;2022-07-06T00:19:00;98634.13;;;20.13;67.12
29467;BME280;60968;37.490;-122.288;2022-07-06T00:22:01;98622.69;;;20.13;67.62
29467;BME280;60968;37.490;-122.288;2022-07-06T00:25:02;98624.88;;;20.20;66.91
29467;BME280;60968;37.490;-122.288;2022-07-06T00:28:06;98623.44;;;20.00;67.06
29467;BME280;60968;37.490;-122.288;2022-07-06T00:31:07;98617.25;;;19.69;68.36
29467;BME280;60968;37.490;-122.288;2022-07-06T00:34:08;98610.53;;;19.64;68.61
29467;BME280;60968;37.490;-122.288;2022-07-06T00:37:09;98614.91;;;19.49;69.16
29467;BME280;60968;37.490;-122.288;2022-07-06T00:40:10;98605.38;;;19.30;69.54
29467;BME280;60968;37.490;-122.288;2022-07-06T00:43:11;98599.00;;;19.02;70.36
29467;BME280;60968;37.490;-122.288;2022-07-06T00:46:12;98591.59;;;18.93;71.31
29467;BME280;60968;37.490;-122.288;2022-07-06T00:49:13;98599.25;;;18.98;71.19
29467;BME280;60968;37.490;-122.288;2022-07-06T00:52:14;98601.16;;;18.96;71.33
29467;BME280;60968;37.490;-122.288;2022-07-06T00:55:18;98593.53;;;18.90;71.38
29467;BME280;60968;37.490;-122.288;2022-07-06T00:58:19;98589.97;;;18.91;71.64
29467;BME280;60968;37.490;-122.288;2022-07-06T01:01:20;98586.56;;;18.89;71.13
29467;BME280;60968;37.490;-122.288;2022-07-06T01:04:21;98582.25;;;18.70;72.06
29467;BME280;60968;37.490;-122.288;2022-07-06T01:07:22;98590.44;;;18.65;72.71
29467;BME280;60968;37.490;-122.288;2022-07-06T01:10:24;98590.25;;;18.68;72.24
29467;BME280;60968;37.490;-122.288;2022-07-06T01:13:26;98582.06;;;18.57;73.04
29467;BME280;60968;37.490;-122.288;2022-07-06T01:16:28;98572.53;;;18.55;72.67
29467;BME280;60968;37.490;-122.288;2022-07-06T01:19:30;98581.22;;;18.57;72.83
29467;BME280;60968;37.490;-122.288;2022-07-06T01:22:32;98590.91;;;18.56;73.07
29467;BME280;60968;37.490;-122.288;2022-07-06T01:25:33;98588.34;;;18.39;74.06
29467;BME280;60968;37.490;-122.288;2022-07-06T01:28:39;98589.06;;;18.25;74.84
29467;BME280;60968;37.490;-122.288;2022-07-06T01:31:48;98590.34;;;18.33;74.62
29467;BME280;60968;37.490;-122.288;2022-07-06T01:34:49;98593.38;;;18.43;73.82
29467;BME280;60968;37.490;-122.288;2022-07-06T01:37:50;98588.25;;;18.40;73.72
29467;BME280;60968;37.490;-122.288;2022-07-06T01:40:51;98596.16;;;18.40;73.79
29467;BME280;60968;37.490;-122.288;2022-07-06T01:43:52;98597.69;;;18.28;74.44
29467;BME280;60968;37.490;-122.288;2022-07-06T01:46:52;98597.31;;;18.19;74.90
29467;BME280;60968;37.490;-122.288;2022-07-06T01:49:54;98592.16;;;18.15;75.01
29467;BME280;60968;37.490;-122.288;2022-07-06T01:53:02;98592.59;;;18.08;75.47
29467;BME280;60968;37.490;-122.288;2022-07-06T01:56:03;98595.91;;;17.94;76.02
29467;BME280;60968;37.490;-122.288;2022-07-06T01:59:05;98598.72;;;17.91;76.49
29467;BME280;60968;37.490;-122.288;2022-07-06T02:02:06;98597.81;;;17.73;76.86
29467;BME280;60968;37.490;-122.288;2022-07-06T02:05:07;98600.78;;;17.66;77.66
29467;BME280;60968;37.490;-122.288;2022-07-06T02:08:08;98597.09;;;17.52;78.38
29467;BME280;60968;37.490;-122.288;2022-07-06T02:11:10;98610.34;;;17.50;78.32
29467;BME280;60968;37.490;-122.288;2022-07-06T02:14:11;98607.56;;;17.36;78.88
29467;BME280;60968;37.490;-122.288;2022-07-06T02:17:13;98607.66;;;17.32;79.41
29467;BME280;60968;37.490;-122.288;2022-07-06T02:20:14;98609.63;;;17.10;80.72
29467;BME280;60968;37.490;-122.288;2022-07-06T02:23:15;98613.56;;;17.01;81.15
29467;BME280;60968;37.490;-122.288;2022-07-06T02:26:16;98608.59;;;16.95;81.58
29467;BME280;60968;37.490;-122.288;2022-07-06T02:29:17;98600.78;;;16.93;81.68
29467;BME280;60968;37.490;-122.288;2022-07-06T02:32:17;98608.97;;;16.86;82.06
29467;BME280;60968;37.490;-122.288;2022-07-06T02:35:18;98604.91;;;16.78;82.34
29467;BME280;60968;37.490;-122.288;2022-07-06T02:38:19;98604.06;;;16.59;83.62
29467;BME280;60968;37.490;-122.288;2022-07-06T02:41:20;98599.91;;;16.53;84.28
29467;BME280;60968;37.490;-122.288;2022-07-06T02:44:21;98607.81;;;16.53;83.98
29467;BME280;60968;37.490;-122.288;2022-07-06T02:47:22;98611.25;;;16.35;85.32
29467;BME280;60968;37.490;-122.288;2022-07-06T02:50:23;98607.44;;;16.21;86.64
29467;BME280;60968;37.490;-122.288;2022-07-06T02:53:24;98610.75;;;16.26;85.99
29467;BME280;60968;37.490;-122.288;2022-07-06T02:56:25;98596.16;;;16.19;86.44
29467;BME280;60968;37.490;-122.288;2022-07-06T02:59:26;98594.59;;;16.15;86.57
29467;BME280;60968;37.490;-122.288;2022-07-06T03:02:27;98604.97;;;15.98;87.84
29467;BME280;60968;37.490;-122.288;2022-07-06T03:05:28;98605.22;;;15.91;89.36
29467;BME280;60968;37.490;-122.288;2022-07-06T03:08:28;98601.22;;;15.83;90.06
29467;BME280;60968;37.490;-122.288;2022-07-06T03:11:29;98601.22;;;15.83;89.87
29467;BME280;60968;37.490;-122.288;2022-07-06T03:14:30;98605.84;;;15.76;89.96
29467;BME280;60968;37.490;-122.288;2022-07-06T03:17:32;98586.84;;;15.69;90.63
29467;BME280;60968;37.490;-122.288;2022-07-06T03:20:33;98586.91;;;15.68;90.80
29467;BME280;60968;37.490;-122.288;2022-07-06T03:23:35;98580.09;;;15.64;90.99
29467;BME280;60968;37.490;-122.288;2022-07-06T03:26:37;98590.66;;;15.62;91.49
29467;BME280;60968;37.490;-122.288;2022-07-06T03:29:38;98589.06;;;15.58;92.04
29467;BME280;60968;37.490;-122.288;2022-07-06T03:32:39;98605.16;;;15.50;93.02
29467;BME280;60968;37.490;-122.288;2022-07-06T03:35:40;98602.75;;;15.44;93.51
29467;BME280;60968;37.490;-122.288;2022-07-06T03:38:41;98601.38;;;15.35;93.81
29467;BME280;60968;37.490;-122.288;2022-07-06T03:41:42;98619.09;;;15.30;94.77
29467;BME280;60968;37.490;-122.288;2022-07-06T03:44:43;98625.25;;;15.29;94.55
29467;BME280;60968;37.490;-122.288;2022-07-06T03:47:44;98628.22;;;15.20;95.15
29467;BME280;60968;37.490;-122.288;2022-07-06T03:50:45;98637.94;;;15.18;95.41
29467;BME280;60968;37.490;-122.288;2022-07-06T03:53:45;98641.41;;;15.18;95.28
29467;BME280;60968;37.490;-122.288;2022-07-06T03:56:46;98643.00;;;15.22;94.74
29467;BME280;60968;37.490;-122.288;2022-07-06T03:59:47;98649.97;;;15.23;94.89
29467;BME280;60968;37.490;-122.288;2022-07-06T04:02:48;98648.13;;;15.25;94.66
29467;BME280;60968;37.490;-122.288;2022-07-06T04:05:49;98647.47;;;15.20;95.34
29467;BME280;60968;37.490;-122.288;2022-07-06T04:08:50;98650.88;;;15.22;95.30
29467;BME280;60968;37.490;-122.288;2022-07-06T04:11:51;98661.44;;;15.21;95.49
29467;BME280;60968;37.490;-122.288;2022-07-06T04:14:52;98651.00;;;15.19;95.48
29467;BME280;60968;37.490;-122.288;2022-07-06T04:17:52;98656.13;;;15.22;95.42
29467;BME280;60968;37.490;-122.288;2022-07-06T04:20:53;98654.13;;;15.29;95.50
29467;BME280;60968;37.490;-122.288;2022-07-06T04:23:55;98666.38;;;15.29;95.90
29467;BME280;60968;37.490;-122.288;2022-07-06T04:26:56;98668.22;;;15.26;96.14
29467;BME280;60968;37.490;-122.288;2022-07-06T04:29:58;98666.56;;;15.24;97.11
29467;BME280;60968;37.490;-122.288;2022-07-06T04:32:59;98671.63;;;15.29;97.79
29467;BME280;60968;37.490;-122.288;2022-07-06T04:35:59;98678.41;;;15.34;98.01
29467;BME280;60968;37.490;-122.288;2022-07-06T04:39:00;98684.41;;;15.38;98.44
29467;BME280;60968;37.490;-122.288;2022-07-06T04:42:02;98692.22;;;15.39;98.49
29467;BME280;60968;37.490;-122.288;2022-07-06T04:45:05;98694.13;;;15.36;100.00
29467;BME280;60968;37.490;-122.288;2022-07-06T04:48:08;98694.13;;;15.36;100.00
29467;BME280;60968;37.490;-122.288;2022-07-06T04:51:08;98711.81;;;15.31;100.00
29467;BME280;60968;37.490;-122.288;2022-07-06T04:54:09;98706.38;;;15.35;100.00
29467;BME280;60968;37.490;-122.288;2022-07-06T04:57:10;98707.25;;;15.36;100.00
29467;BME280;60968;37.490;-122.288;2022-07-06T05:00:12;98707.25;;;15.36;100.00
29467;BME280;60968;37.490;-122.288;2022-07-06T05:03:12;98710.72;;;15.36;100.00
29467;BME280;60968;37.490;-122.288;2022-07-06T05:06:13;98719.38;;;15.38;100.00
29467;BME280;60968;37.490;-122.288;2022-07-06T05:09:14;98724.41;;;15.44;100.00
29467;BME280;60968;37.490;-122.288;2022-07-06T05:12:16;98728.91;;;15.41;100.00
29467;BME280;60968;37.490;-122.288;2022-07-06T05:15:17;98735.19;;;15.37;100.00
29467;BME280;60968;37.490;-122.288;2022-07-06T05:18:18;98736.78;;;15.41;100.00
29467;BME280;60968;37.490;-122.288;2022-07-06T05:21:19;98737.53;;;15.44;99.98
29467;BME280;60968;37.490;-122.288;2022-07-06T05:24:19;98747.47;;;15.36;100.00
29467;BME280;60968;37.490;-122.288;2022-07-06T05:27:22;98747.28;;;15.41;100.00
29467;BME280;60968;37.490;-122.288;2022-07-06T05:30:22;98755.28;;;15.38;100.00
29467;BME280;60968;37.490;-122.288;2022-07-06T05:33:23;98744.78;;;15.38;100.00
29467;BME280;60968;37.490;-122.288;2022-07-06T05:36:24;98741.81;;;15.47;100.00
29467;BME280;60968;37.490;-122.288;2022-07-06T05:39:25;98752.53;;;15.41;100.00
29467;BME280;60968;37.490;-122.288;2022-07-06T05:42:27;98757.91;;;15.38;100.00
29467;BME280;60968;37.490;-122.288;2022-07-06T05:45:29;98748.75;;;15.48;100.00
29467;BME280;60968;37.490;-122.288;2022-07-06T05:48:30;98748.75;;;15.48;98.67
29467;BME280;60968;37.490;-122.288;2022-07-06T05:51:31;98753.22;;;15.46;98.49
29467;BME280;60968;37.490;-122.288;2022-07-06T05:54:32;98748.69;;;15.50;96.97
29467;BME280;60968;37.490;-122.288;2022-07-06T05:57:33;98748.47;;;15.56;97.05
29467;BME280;60968;37.490;-122.288;2022-07-06T06:00:35;98748.59;;;15.53;97.74
29467;BME280;60968;37.490;-122.288;2022-07-06T06:03:36;98742.47;;;15.52;97.50
29467;BME280;60968;37.490;-122.288;2022-07-06T06:06:37;98747.59;;;15.55;97.33
29467;BME280;60968;37.490;-122.288;2022-07-06T06:09:38;98739.50;;;15.61;96.90
29467;BME280;60968;37.490;-122.288;2022-07-06T06:12:40;98746.34;;;15.66;96.87
29467;BME280;60968;37.490;-122.288;2022-07-06T06:15:41;98740.47;;;15.59;96.69
29467;BME280;60968;37.490;-122.288;2022-07-06T06:18:41;98737.72;;;15.62;96.55
29467;BME280;60968;37.490;-122.288;2022-07-06T06:21:42;98741.16;;;15.64;96.40
29467;BME280;60968;37.490;-122.288;2022-07-06T06:24:43;98737.44;;;15.70;96.05
29467;BME280;60968;37.490;-122.288;2022-07-06T06:27:45;98739.50;;;15.61;96.74
29467;BME280;60968;37.490;-122.288;2022-07-06T06:30:46;98746.47;;;15.63;97.32
29467;BME280;60968;37.490;-122.288;2022-07-06T06:33:47;98736.06;;;15.59;97.78
29467;BME280;60968;37.490;-122.288;2022-07-06T06:36:47;98736.06;;;15.59;97.97
29467;BME280;60968;37.490;-122.288;2022-07-06T06:39:48;98736.81;;;15.63;98.39
29467;BME280;60968;37.490;-122.288;2022-07-06T06:42:50;98737.66;;;15.64;98.02
29467;BME280;60968;37.490;-122.288;2022-07-06T06:45:51;98730.16;;;15.54;96.31
29467;BME280;60968;37.490;-122.288;2022-07-06T06:48:52;98730.09;;;15.56;96.56
29467;BME280;60968;37.490;-122.288;2022-07-06T06:51:53;98730.75;;;15.61;96.19
29467;BME280;60968;37.490;-122.288;2022-07-06T06:54:53;98732.25;;;15.68;95.54
29467;BME280;60968;37.490;-122.288;2022-07-06T06:57:54;98731.38;;;15.68;95.45
29467;BME280;60968;37.490;-122.288;2022-07-06T07:00:55;98733.34;;;15.63;94.98
29467;BME280;60968;37.490;-122.288;2022-07-06T07:03:57;98736.06;;;15.59;95.06
29467;BME280;60968;37.490;-122.288;2022-07-06T07:06:59;98734.38;;;15.58;96.29
29467;BME280;60968;37.490;-122.288;2022-07-06T07:10:00;98735.16;;;15.60;96.13
29467;BME280;60968;37.490;-122.288;2022-07-06T07:13:01;98730.75;;;15.61;96.41
29467;BME280;60968;37.490;-122.288;2022-07-06T07:16:02;98721.06;;;15.63;96.10
29467;BME280;60968;37.490;-122.288;2022-07-06T07:19:02;98730.03;;;15.57;96.95
29467;BME280;60968;37.490;-122.288;2022-07-06T07:22:03;98725.69;;;15.56;97.23
29467;BME280;60968;37.490;-122.288;2022-07-06T07:25:06;98727.75;;;15.48;97.09
29467;BME280;60968;37.490;-122.288;2022-07-06T07:28:07;98728.69;;;15.47;97.56
29467;BME280;60968;37.490;-122.288;2022-07-06T07:31:08;98730.38;;;15.48;97.81
29467;BME280;60968;37.490;-122.288;2022-07-06T07:34:09;98717.25;;;15.48;97.59
29467;BME280;60968;37.490;-122.288;2022-07-06T07:37:09;98717.16;;;15.51;96.49
29467;BME280;60968;37.490;-122.288;2022-07-06T07:40:11;98718.63;;;15.58;96.18
29467;BME280;60968;37.490;-122.288;2022-07-06T07:43:12;98710.75;;;15.58;95.81
29467;BME280;60968;37.490;-122.288;2022-07-06T07:46:13;98714.16;;;15.60;95.42
29467;BME280;60968;37.490;-122.288;2022-07-06T07:49:14;98703.78;;;15.57;94.26
29467;BME280;60968;37.490;-122.288;2022-07-06T07:52:15;98709.09;;;15.56;94.48
29467;BME280;60968;37.490;-122.288;2022-07-06T07:55:17;98706.47;;;15.56;94.57
29467;BME280;60968;37.490;-122.288;2022-07-06T07:58:18;98715.19;;;15.56;94.33
29467;BME280;60968;37.490;-122.288;2022-07-06T08:01:22;98709.28;;;15.51;94.58
29467;BME280;60968;37.490;-122.288;2022-07-06T08:04:23;98712.00;;;15.48;94.18
29467;BME280;60968;37.490;-122.288;2022-07-06T08:07:24;98718.06;;;15.50;93.97
29467;BME280;60968;37.490;-122.288;2022-07-06T08:10:25;98713.44;;;15.57;93.78
29467;BME280;60968;37.490;-122.288;2022-07-06T08:13:25;98720.22;;;15.63;94.39
29467;BME280;60968;37.490;-122.288;2022-07-06T08:16:26;98703.72;;;15.59;94.83
29467;BME280;60968;37.490;-122.288;2022-07-06T08:19:27;98710.84;;;15.55;95.06
29467;BME280;60968;37.490;-122.288;2022-07-06T08:22:28;98708.97;;;15.59;95.41
29467;BME280;60968;37.490;-122.288;2022-07-06T08:25:29;98707.06;;;15.63;94.40
29467;BME280;60968;37.490;-122.288;2022-07-06T08:28:30;98711.78;;;15.54;95.09
29467;BME280;60968;37.490;-122.288;2022-07-06T08:31:31;98709.31;;;15.50;95.21
29467;BME280;60968;37.490;-122.288;2022-07-06T08:34:32;98704.03;;;15.51;95.21
29467;BME280;60968;37.490;-122.288;2022-07-06T08:37:33;98707.56;;;15.50;94.82
29467;BME280;60968;37.490;-122.288;2022-07-06T08:40:35;98711.09;;;15.49;95.13
29467;BME280;60968;37.490;-122.288;2022-07-06T08:43:39;98709.50;;;15.45;94.71
29467;BME280;60968;37.490;-122.288;2022-07-06T08:46:40;98707.63;;;15.49;95.16
29467;BME280;60968;37.490;-122.288;2022-07-06T08:49:43;98699.69;;;15.50;94.85
29467;BME280;60968;37.490;-122.288;2022-07-06T08:52:45;98697.13;;;15.49;95.21
29467;BME280;60968;37.490;-122.288;2022-07-06T08:55:47;98694.50;;;15.49;95.27
29467;BME280;60968;37.490;-122.288;2022-07-06T08:58:49;98700.66;;;15.48;94.96
29467;BME280;60968;37.490;-122.288;2022-07-06T09:01:51;98698.56;;;15.34;95.13
29467;BME280;60968;37.490;-122.288;2022-07-06T09:04:55;98701.88;;;15.39;94.15
29467;BME280;60968;37.490;-122.288;2022-07-06T09:07:56;98703.47;;;15.43;94.08
29467;BME280;60968;37.490;-122.288;2022-07-06T09:10:57;98698.28;;;15.41;93.89
29467;BME280;60968;37.490;-122.288;2022-07-06T09:13:58;98701.06;;;15.37;93.38
29467;BME280;60968;37.490;-122.288;2022-07-06T09:17:06;98703.81;;;15.34;92.97
29467;BME280;60968;37.490;-122.288;2022-07-06T09:20:10;98695.03;;;15.35;92.97
29467;BME280;60968;37.490;-122.288;2022-07-06T09:23:15;98700.75;;;15.22;93.29
29467;BME280;60968;37.490;-122.288;2022-07-06T09:26:17;98700.81;;;15.21;93.07
29467;BME280;60968;37.490;-122.288;2022-07-06T09:29:17;98697.53;;;15.14;92.75
29467;BME280;60968;37.490;-122.288;2022-07-06T09:32:20;98692.28;;;15.14;93.10
29467;BME280;60968;37.490;-122.288;2022-07-06T09:35:36;98694.97;;;15.13;93.21
29467;BME280;60968;37.490;-122.288;2022-07-06T09:38:37;98697.66;;;15.11;93.45
29467;BME280;60968;37.490;-122.288;2022-07-06T09:41:37;98702.66;;;15.17;93.25
29467;BME280;60968;37.490;-122.288;2022-07-06T09:44:40;98703.59;;;15.16;93.65
29467;BME280;60968;37.490;-122.288;2022-07-06T09:47:47;98699.31;;;15.14;94.57
29467;BME280;60968;37.490;-122.288;2022-07-06T09:50:52;98702.78;;;15.14;96.09
29467;BME280;60968;37.490;-122.288;2022-07-06T09:53:58;98707.06;;;15.17;96.90
29467;BME280;60968;37.490;-122.288;2022-07-06T09:56:59;98705.59;;;15.09;97.98
29467;BME280;60968;37.490;-122.288;2022-07-06T10:00:00;98709.25;;;15.05;98.36
29467;BME280;60968;37.490;-122.288;2022-07-06T10:03:01;98702.59;;;14.97;99.05
29467;BME280;60968;37.490;-122.288;2022-07-06T10:06:02;98703.16;;;15.05;98.86
29467;BME280;60968;37.490;-122.288;2022-07-06T10:09:06;98699.72;;;15.03;98.98
29467;BME280;60968;37.490;-122.288;2022-07-06T10:12:09;98702.47;;;15.00;98.78
29467;BME280;60968;37.490;-122.288;2022-07-06T10:15:13;98703.44;;;14.97;99.42
29467;BME280;60968;37.490;-122.288;2022-07-06T10:18:15;98694.72;;;14.97;99.28
29467;BME280;60968;37.490;-122.288;2022-07-06T10:21:17;98704.13;;;15.02;99.11
29467;BME280;60968;37.490;-122.288;2022-07-06T10:24:20;98706.69;;;15.04;98.37
29467;BME280;60968;37.490;-122.288;2022-07-06T10:27:21;98697.41;;;14.95;98.65
29467;BME280;60968;37.490;-122.288;2022-07-06T10:30:25;98698.56;;;14.86;99.01
29467;BME280;60968;37.490;-122.288;2022-07-06T10:33:27;98698.69;;;14.83;99.21
29467;BME280;60968;37.490;-122.288;2022-07-06T10:36:29;98695.41;;;14.77;99.38
29467;BME280;60968;37.490;-122.288;2022-07-06T10:39:37;98690.16;;;14.78;99.17
29467;BME280;60968;37.490;-122.288;2022-07-06T10:42:46;98681.41;;;14.78;99.37
29467;BME280;60968;37.490;-122.288;2022-07-06T10:48:49;98691.16;;;14.74;98.77
29467;BME280;60968;37.490;-122.288;2022-07-06T10:51:50;98695.59;;;14.72;98.81
29467;BME280;60968;37.490;-122.288;2022-07-06T10:54:56;98684.31;;;14.70;98.58
29467;BME280;60968;37.490;-122.288;2022-07-06T10:57:58;98693.88;;;14.71;98.48
29467;BME280;60968;37.490;-122.288;2022-07-06T11:00:59;98682.47;;;14.72;98.03
29467;BME280;60968;37.490;-122.288;2022-07-06T11:07:08;98682.78;;;14.64;97.47
29467;BME280;60968;37.490;-122.288;2022-07-06T11:10:09;98684.66;;;14.59;97.45
29467;BME280;60968;37.490;-122.288;2022-07-06T11:13:25;98688.09;;;14.63;97.06
29467;BME280;60968;37.490;-122.288;2022-07-06T11:16:27;98688.88;;;14.65;97.04
29467;BME280;60968;37.490;-122.288;2022-07-06T11:19:30;98691.56;;;14.62;96.63
29467;BME280;60968;37.490;-122.288;2022-07-06T11:22:31;98694.41;;;14.55;96.39
29467;BME280;60968;37.490;-122.288;2022-07-06T11:25:32;98697.25;;;14.49;97.37
29467;BME280;60968;37.490;-122.288;2022-07-06T11:28:35;98692.28;;;14.41;97.99
29467;BME280;60968;37.490;-122.288;2022-07-06T11:31:42;98689.91;;;14.34;98.04
29467;BME280;60968;37.490;-122.288;2022-07-06T11:34:44;98689.22;;;14.29;98.39
29467;BME280;60968;37.490;-122.288;2022-07-06T11:37:45;98691.94;;;14.26;98.49
29467;BME280;60968;37.490;-122.288;2022-07-06T11:40:46;98693.06;;;14.18;98.86
29467;BME280;60968;37.490;-122.288;2022-07-06T11:43:47;98699.91;;;14.22;99.26
29467;BME280;60968;37.490;-122.288;2022-07-06T11:46:49;98702.22;;;14.32;99.23
29467;BME280;60968;37.490;-122.288;2022-07-06T11:49:50;98697.41;;;14.45;98.62
29467;BME280;60968;37.490;-122.288;2022-07-06T11:52:51;98687.53;;;14.53;97.77
29467;BME280;60968;37.490;-122.288;2022-07-06T11:55:52;98695.09;;;14.61;97.91
29467;BME280;60968;37.490;-122.288;2022-07-06T11:58:58;98692.19;;;14.70;97.66
29467;BME280;60968;37.490;-122.288;2022-07-06T12:02:03;98692.78;;;14.77;97.63
29467;BME280;60968;37.490;-122.288;2022-07-06T12:05:04;98679.59;;;14.80;97.76
29467;BME280;60968;37.490;-122.288;2022-07-06T12:08:08;98687.47;;;14.80;98.01
29467;BME280;60968;37.490;-122.288;2022-07-06T12:11:09;98694.53;;;14.78;98.37
29467;BME280;60968;37.490;-122.288;2022-07-06T12:14:18;98694.47;;;14.79;98.46
29467;BME280;60968;37.490;-122.288;2022-07-06T12:17:19;98698.81;;;14.80;98.69
29467;BME280;60968;37.490;-122.288;2022-07-06T12:20:20;98700.72;;;14.75;99.36
29467;BME280;60968;37.490;-122.288;2022-07-06T12:23:21;98707.69;;;14.76;99.91
29467;BME280;60968;37.490;-122.288;2022-07-06T12:26:27;98703.34;;;14.75;100.00
29467;BME280;60968;37.490;-122.288;2022-07-06T12:29:28;98694.63;;;14.74;100.00
29467;BME280;60968;37.490;-122.288;2022-07-06T12:32:29;98700.00;;;14.71;100.00
29467;BME280;60968;37.490;-122.288;2022-07-06T12:35:30;98702.94;;;14.62;100.00
29467;BME280;60968;37.490;-122.288;2022-07-06T12:38:31;98701.34;;;14.56;100.00
29467;BME280;60968;37.490;-122.288;2022-07-06T12:41:34;98703.19;;;14.54;100.00
29467;BME280;60968;37.490;-122.288;2022-07-06T12:44:44;98709.44;;;14.50;100.00
29467;BME280;60968;37.490;-122.288;2022-07-06T12:48:01;98701.69;;;14.47;100.00
29467;BME280;60968;37.490;-122.288;2022-07-06T12:51:02;98704.63;;;14.38;100.00
29467;BME280;60968;37.490;-122.288;2022-07-06T12:54:14;98704.94;;;14.29;100.00
29467;BME280;60968;37.490;-122.288;2022-07-06T12:57:17;98704.97;;;14.27;100.00
29467;BME280;60968;37.490;-122.288;2022-07-06T13:00:19;98720.09;;;14.20;100.00
29467;BME280;60968;37.490;-122.288;2022-07-06T13:03:20;98722.72;;;14.19;100.00
29467;BME280;60968;37.490;-122.288;2022-07-06T13:06:29;98726.22;;;14.19;100.00
29467;BME280;60968;37.490;-122.288;2022-07-06T13:09:31;98720.97;;;14.19;100.00
29467;BME280;60968;37.490;-122.288;2022-07-06T13:12:32;98732.25;;;14.21;100.00
29467;BME280;60968;37.490;-122.288;2022-07-06T13:15:33;98734.88;;;14.21;100.00
29467;BME280;60968;37.490;-122.288;2022-07-06T13:18:34;98731.31;;;14.24;100.00
29467;BME280;60968;37.490;-122.288;2022-07-06T13:21:35;98736.66;;;14.21;100.00
29467;BME280;60968;37.490;-122.288;2022-07-06T13:24:37;98742.78;;;14.20;100.00
29467;BME280;60968;37.490;-122.288;2022-07-06T13:27:38;98737.31;;;14.28;100.00
29467;BME280;60968;37.490;-122.288;2022-07-06T13:30:39;98744.84;;;14.37;100.00
29467;BME280;60968;37.490;-122.288;2022-07-06T13:33:40;98747.31;;;14.41;100.00
29467;BME280;60968;37.490;-122.288;2022-07-06T13:36:42;98756.88;;;14.43;100.00
29467;BME280;60968;37.490;-122.288;2022-07-06T13:39:43;98752.59;;;14.40;100.00
29467;BME280;60968;37.490;-122.288;2022-07-06T13:42:44;98751.53;;;14.46;100.00
29467;BME280;60968;37.490;-122.288;2022-07-06T13:45:46;98759.44;;;14.44;100.00
29467;BME280;60968;37.490;-122.288;2022-07-06T13:48:47;98759.19;;;14.52;100.00
29467;BME280;60968;37.490;-122.288;2022-07-06T13:51:49;98757.53;;;14.49;100.00
29467;BME280;60968;37.490;-122.288;2022-07-06T13:54:50;98757.66;;;14.46;100.00
29467;BME280;60968;37.490;-122.288;2022-07-06T13:57:50;98768.88;;;14.50;100.00
29467;BME280;60968;37.490;-122.288;2022-07-06T14:00:54;98762.00;;;14.47;100.00
29467;BME280;60968;37.490;-122.288;2022-07-06T14:03:55;98761.00;;;14.50;100.00
29467;BME280;60968;37.490;-122.288;2022-07-06T14:06:55;98761.06;;;14.48;100.00
29467;BME280;60968;37.490;-122.288;2022-07-06T14:09:56;98768.69;;;14.56;100.00
29467;BME280;60968;37.490;-122.288;2022-07-06T14:12:58;98768.00;;;14.76;100.00
29467;BME280;60968;37.490;-122.288;2022-07-06T14:15:59;98771.16;;;14.86;100.00
29467;BME280;60968;37.490;-122.288;2022-07-06T14:19:01;98780.31;;;14.99;100.00
29467;BME280;60968;37.490;-122.288;2022-07-06T14:22:01;98777.16;;;15.15;98.55
29467;BME280;60968;37.490;-122.288;2022-07-06T14:25:03;98777.31;;;15.34;97.96
29467;BME280;60968;37.490;-122.288;2022-07-06T14:28:04;98788.19;;;15.47;97.74
29467;BME280;60968;37.490;-122.288;2022-07-06T14:31:05;98786.97;;;15.55;97.19
29467;BME280;60968;37.490;-122.288;2022-07-06T14:34:06;98792.94;;;15.60;97.24
29467;BME280;60968;37.490;-122.288;2022-07-06T14:37:07;98792.81;;;15.64;96.18
29467;BME280;60968;37.490;-122.288;2022-07-06T14:40:09;98794.25;;;15.72;96.80
29467;BME280;60968;37.490;-122.288;2022-07-06T14:43:11;98794.88;;;15.79;96.69
29467;BME280;60968;37.490;-122.288;2022-07-06T14:46:11;98793.69;;;15.64;96.14
29467;BME280;60968;37.490;-122.288;2022-07-06T14:49:12;98796.53;;;15.58;96.46
29467;BME280;60968;37.490;-122.288;2022-07-06T14:52:13;98798.19;;;15.84;94.63
29467;BME280;60968;37.490;-122.288;2022-07-06T14:55:15;98800.22;;;15.76;95.33
29467;BME280;60968;37.490;-122.288;2022-07-06T14:58:16;98793.28;;;15.97;94.06
29467;BME280;60968;37.490;-122.288;2022-07-06T15:01:17;98805.53;;;16.20;92.37
29467;BME280;60968;37.490;-122.288;2022-07-06T15:04:18;98805.22;;;16.28;90.96
29467;BME280;60968;37.490;-122.288;2022-07-06T15:07:19;98802.22;;;16.37;90.05
29467;BME280;60968;37.490;-122.288;2022-07-06T15:10:20;98806.03;;;17.33;86.57
29467;BME280;60968;37.490;-122.288;2022-07-06T15:13:20;98817.56;;;17.69;84.89
29467;BME280;60968;37.490;-122.288;2022-07-06T15:16:22;98813.66;;;17.58;84.66
29467;BME280;60968;37.490;-122.288;2022-07-06T15:19:23;98811.28;;;17.33;86.42
29467;BME280;60968;37.490;-122.288;2022-07-06T15:22:23;98812.53;;;17.64;86.85
29467;BME280;60968;37.490;-122.288;2022-07-06T15:25:24;98820.50;;;17.62;84.66
29467;BME280;60968;37.490;-122.288;2022-07-06T15:28:25;98825.78;;;17.23;86.71